createdAt,value
2017-12-27T00:00:27.369Z,3.95
2017-12-27T00:01:26.907Z,3.92
2017-12-27T00:02:26.599Z,3.95
2017-12-27T00:03:26.757Z,3.93
2017-12-27T00:04:26.738Z,3.97
2017-12-27T00:05:26.809Z,3.97
2017-12-27T00:06:26.700Z,3.97
2017-12-27T00:07:26.864Z,3.97
2017-12-27T00:08:26.870Z,3.97
2017-12-27T00:09:27.553Z,3.96
2017-12-27T00:10:26.739Z,3.97
2017-12-27T00:11:26.686Z,3.96
2017-12-27T00:12:26.565Z,3.95
2017-12-27T00:13:26.770Z,3.96
2017-12-27T00:14:26.855Z,3.95
2017-12-27T00:15:26.838Z,3.91
2017-12-27T00:16:26.766Z,3.91
2017-12-27T00:17:26.688Z,3.93
2017-12-27T00:18:26.499Z,3.91
2017-12-27T00:19:26.758Z,3.91
2017-12-27T00:20:26.524Z,3.89
2017-12-27T00:21:26.817Z,3.88
2017-12-27T00:22:26.593Z,3.85
2017-12-27T00:23:26.691Z,3.84
2017-12-27T00:24:26.719Z,3.83
2017-12-27T00:25:26.907Z,3.82
2017-12-27T00:26:27.096Z,3.78
2017-12-27T00:27:26.833Z,3.76
2017-12-27T00:28:26.904Z,3.73
2017-12-27T00:29:26.817Z,3.71
2017-12-27T00:30:26.812Z,3.69
2017-12-27T00:31:26.823Z,3.68
2017-12-27T00:32:26.531Z,3.69
2017-12-27T00:33:26.643Z,3.68
2017-12-27T00:34:26.533Z,3.67
2017-12-27T00:35:26.691Z,3.66
2017-12-27T00:36:26.893Z,3.63
2017-12-27T00:37:26.838Z,3.62
2017-12-27T00:38:26.618Z,3.61
2017-12-27T00:39:36.870Z,3.59
2017-12-27T00:40:27.211Z,3.6
2017-12-27T00:41:27.370Z,3.57
2017-12-27T00:42:27.328Z,3.58
2017-12-27T00:44:27.237Z,3.61
2017-12-27T00:45:31.517Z,3.58
2017-12-27T00:46:27.543Z,3.57
2017-12-27T00:47:28.056Z,3.57
2017-12-27T00:48:27.041Z,3.57
2017-12-27T00:49:27.009Z,3.56
2017-12-27T00:50:26.683Z,3.56
2017-12-27T00:51:26.774Z,3.56
2017-12-27T00:52:26.786Z,3.55
2017-12-27T00:54:29.116Z,3.56
2017-12-27T00:55:27.739Z,3.55
2017-12-27T00:56:26.853Z,3.55
2017-12-27T00:57:26.793Z,3.54
2017-12-27T00:58:27.149Z,3.55
2017-12-27T00:59:28.205Z,3.55
2017-12-27T01:00:26.959Z,3.55
2017-12-27T01:01:27.309Z,3.53
2017-12-27T01:02:28.310Z,3.54
2017-12-27T01:03:43.017Z,3.51
2017-12-27T01:04:27.508Z,3.55
2017-12-27T01:05:29.603Z,3.55
2017-12-27T01:06:32.046Z,3.54
2017-12-27T01:07:26.575Z,3.55
2017-12-27T01:08:39.177Z,3.56
2017-12-27T01:09:27.983Z,3.59
2017-12-27T01:10:27.841Z,3.62
2017-12-27T01:11:27.337Z,3.62
2017-12-27T01:12:28.231Z,3.63
2017-12-27T01:13:27.939Z,3.64
2017-12-27T01:14:28.070Z,3.65
2017-12-27T01:15:27.274Z,3.65
2017-12-27T01:16:28.041Z,3.64
2017-12-27T01:17:29.046Z,3.68
2017-12-27T01:18:30.576Z,3.69
2017-12-27T01:19:28.232Z,3.69
2017-12-27T01:20:27.725Z,3.72
2017-12-27T01:21:26.637Z,3.7
2017-12-27T01:22:26.851Z,3.71
2017-12-27T01:23:27.372Z,3.7
2017-12-27T01:24:27.799Z,3.69
2017-12-27T01:25:26.865Z,3.69
2017-12-27T01:26:26.849Z,3.69
2017-12-27T01:27:26.710Z,3.7
2017-12-27T01:28:27.140Z,3.7
2017-12-27T01:29:32.355Z,3.7
2017-12-27T01:30:26.913Z,3.7
2017-12-27T01:31:27.822Z,3.7
2017-12-27T01:34:27.087Z,3.72
2017-12-27T01:35:27.598Z,3.71
2017-12-27T01:36:27.023Z,3.72
2017-12-27T01:37:26.847Z,3.71
2017-12-27T01:38:26.852Z,3.7
2017-12-27T01:39:26.845Z,3.7
2017-12-27T01:40:26.786Z,3.69
2017-12-27T01:41:26.868Z,3.68
2017-12-27T01:42:28.212Z,3.71
2017-12-27T01:43:27.002Z,3.7
2017-12-27T01:44:26.825Z,3.69
2017-12-27T01:45:27.075Z,3.71
2017-12-27T01:46:26.971Z,3.72
2017-12-27T01:47:27.556Z,3.71
2017-12-27T01:48:27.423Z,3.7
2017-12-27T01:49:29.345Z,3.7
2017-12-27T01:50:27.133Z,3.69
2017-12-27T01:51:27.492Z,3.71
2017-12-27T01:52:29.116Z,3.69
2017-12-27T01:53:26.902Z,3.71
2017-12-27T01:54:27.491Z,3.7
2017-12-27T01:55:27.582Z,3.69
2017-12-27T01:56:28.517Z,3.68
2017-12-27T01:57:27.008Z,3.66
2017-12-27T01:58:26.920Z,3.68
2017-12-27T01:59:28.576Z,3.65
2017-12-27T02:00:26.782Z,3.64
2017-12-27T02:01:26.876Z,3.63
2017-12-27T02:02:27.453Z,3.62
2017-12-27T02:03:27.313Z,3.58
2017-12-27T02:04:26.990Z,3.58
2017-12-27T02:05:28.061Z,3.55
2017-12-27T02:06:31.573Z,3.53
2017-12-27T02:07:26.623Z,3.5
2017-12-27T02:08:27.057Z,3.49
2017-12-27T02:09:26.872Z,3.49
2017-12-27T02:10:28.245Z,3.46
2017-12-27T02:11:27.736Z,3.46
2017-12-27T02:12:29.712Z,3.43
2017-12-27T02:13:31.480Z,3.41
2017-12-27T02:14:32.150Z,3.39
2017-12-27T02:15:27.017Z,3.4
2017-12-27T02:16:28.998Z,3.37
2017-12-27T02:17:31.775Z,3.35
2017-12-27T02:18:27.030Z,3.32
2017-12-27T02:19:26.960Z,3.34
2017-12-27T02:20:26.810Z,3.32
2017-12-27T02:21:31.887Z,3.31
2017-12-27T02:22:31.280Z,3.31
2017-12-27T02:23:27.821Z,3.31
2017-12-27T02:24:28.061Z,3.31
2017-12-27T02:25:26.945Z,3.31
2017-12-27T02:26:27.627Z,3.31
2017-12-27T02:27:28.120Z,3.3
2017-12-27T02:28:28.230Z,3.3
2017-12-27T02:29:29.250Z,3.3
2017-12-27T02:30:27.392Z,3.27
2017-12-27T02:31:28.063Z,3.31
2017-12-27T02:32:26.999Z,3.32
2017-12-27T02:33:26.805Z,3.36
2017-12-27T02:34:26.879Z,3.33
2017-12-27T02:35:27.277Z,3.36
2017-12-27T02:36:26.898Z,3.34
2017-12-27T02:37:27.164Z,3.35
2017-12-27T02:38:26.812Z,3.32
2017-12-27T02:39:28.295Z,3.35
2017-12-27T02:40:28.473Z,3.32
2017-12-27T02:41:28.626Z,3.3
2017-12-27T02:42:28.307Z,3.27
2017-12-27T02:43:27.708Z,3.31
2017-12-27T02:44:27.274Z,3.32
2017-12-27T02:45:27.606Z,3.31
2017-12-27T02:46:26.780Z,3.28
2017-12-27T02:47:26.820Z,3.33
2017-12-27T02:48:26.487Z,3.32
2017-12-27T02:49:29.192Z,3.33
2017-12-27T02:50:27.705Z,3.34
2017-12-27T02:51:28.208Z,3.37
2017-12-27T02:52:27.299Z,3.39
2017-12-27T02:53:29.880Z,3.38
2017-12-27T02:54:29.514Z,3.4
2017-12-27T02:55:27.063Z,3.42
2017-12-27T02:56:27.379Z,3.44
2017-12-27T02:57:27.226Z,3.46
2017-12-27T02:58:27.883Z,3.49
2017-12-27T02:59:28.777Z,3.5
2017-12-27T03:00:27.958Z,3.5
2017-12-27T03:01:31.035Z,3.5
2017-12-27T03:02:28.009Z,3.51
2017-12-27T03:03:27.508Z,3.51
2017-12-27T03:04:26.979Z,3.5
2017-12-27T03:05:27.207Z,3.5
2017-12-27T03:06:29.802Z,3.49
2017-12-27T03:07:27.290Z,3.51
2017-12-27T03:08:28.122Z,3.51
2017-12-27T03:09:26.952Z,3.52
2017-12-27T03:10:26.821Z,3.51
2017-12-27T03:11:29.804Z,3.54
2017-12-27T03:12:28.979Z,3.52
2017-12-27T03:13:26.836Z,3.5
2017-12-27T03:14:26.686Z,3.51
2017-12-27T03:15:26.870Z,3.5
2017-12-27T03:16:27.014Z,3.51
2017-12-27T03:17:26.978Z,3.5
2017-12-27T03:18:36.208Z,3.5
2017-12-27T03:20:26.659Z,3.48
2017-12-27T03:21:27.035Z,3.49
2017-12-27T03:22:28.720Z,3.5
2017-12-27T03:23:29.767Z,3.46
2017-12-27T03:24:27.854Z,3.5
2017-12-27T03:25:29.122Z,3.48
2017-12-27T03:26:29.449Z,3.48
2017-12-27T03:27:29.693Z,3.49
2017-12-27T03:28:29.394Z,3.49
2017-12-27T03:29:27.407Z,3.49
2017-12-27T03:30:26.860Z,3.49
2017-12-27T03:31:27.068Z,3.5
2017-12-27T03:32:27.828Z,3.51
2017-12-27T03:33:28.519Z,3.51
2017-12-27T03:34:27.432Z,3.52
2017-12-27T03:35:28.683Z,3.53
2017-12-27T03:36:27.655Z,3.52
2017-12-27T03:37:26.936Z,3.57
2017-12-27T03:38:29.517Z,3.59
2017-12-27T03:39:29.026Z,3.62
2017-12-27T03:40:30.282Z,3.61
2017-12-27T03:41:29.381Z,3.64
2017-12-27T03:42:28.227Z,3.66
2017-12-27T03:43:28.004Z,3.69
2017-12-27T03:54:43.403Z,3.72
2017-12-27T04:02:27.859Z,3.64
2017-12-27T04:03:24.241Z,3.62
2017-12-27T04:04:24.205Z,3.61
2017-12-27T04:05:24.327Z,3.58
2017-12-27T04:06:24.181Z,3.57
2017-12-27T04:07:24.238Z,3.57
2017-12-27T04:08:24.068Z,3.57
2017-12-27T04:09:24.136Z,3.58
2017-12-27T04:10:24.268Z,3.57
2017-12-27T04:11:24.308Z,3.57
2017-12-27T04:12:24.497Z,3.57
2017-12-27T04:13:24.014Z,3.58
2017-12-27T04:14:23.990Z,3.58
2017-12-27T04:15:24.600Z,3.6
2017-12-27T04:16:24.180Z,3.64
2017-12-27T04:17:23.716Z,3.65
2017-12-27T04:18:23.843Z,3.64
2017-12-27T04:19:24.259Z,3.65
2017-12-27T04:20:23.755Z,3.68
2017-12-27T04:21:24.267Z,3.68
2017-12-27T04:22:24.687Z,3.69
2017-12-27T04:23:24.618Z,3.7
2017-12-27T04:24:23.706Z,3.68
2017-12-27T04:25:24.329Z,3.72
2017-12-27T04:26:24.134Z,3.7
2017-12-27T04:27:23.846Z,3.71
2017-12-27T04:28:24.687Z,3.7
2017-12-27T04:29:24.256Z,3.71
2017-12-27T04:30:24.067Z,3.71
2017-12-27T04:31:24.270Z,3.72
2017-12-27T04:32:24.261Z,3.74
2017-12-27T04:33:24.358Z,3.72
2017-12-27T04:34:24.445Z,3.71
2017-12-27T04:35:24.415Z,3.72
2017-12-27T04:36:24.390Z,3.72
2017-12-27T04:37:23.677Z,3.72
2017-12-27T04:38:24.448Z,3.72
2017-12-27T04:39:24.603Z,3.73
2017-12-27T04:40:24.465Z,3.74
2017-12-27T04:41:24.487Z,3.73
2017-12-27T04:42:24.390Z,3.76
2017-12-27T04:43:23.761Z,3.73
2017-12-27T04:44:24.229Z,3.73
2017-12-27T04:45:24.224Z,3.74
2017-12-27T04:46:24.406Z,3.73
2017-12-27T04:47:24.178Z,3.72
2017-12-27T04:48:24.304Z,3.72
2017-12-27T04:49:24.279Z,3.74
2017-12-27T04:50:24.296Z,3.72
2017-12-27T04:51:24.362Z,3.72
2017-12-27T04:52:24.449Z,3.72
2017-12-27T04:53:24.333Z,3.72
2017-12-27T04:54:23.687Z,3.72
2017-12-27T04:55:24.365Z,3.72
2017-12-27T04:56:24.168Z,3.72
2017-12-27T04:57:24.358Z,3.72
2017-12-27T04:58:24.461Z,3.71
2017-12-27T04:59:23.844Z,3.71
2017-12-27T05:00:24.408Z,3.71
2017-12-27T05:01:24.172Z,3.72
2017-12-27T05:02:24.288Z,3.71
2017-12-27T05:03:24.414Z,3.72
2017-12-27T05:04:24.252Z,3.72
2017-12-27T05:05:23.715Z,3.72
2017-12-27T05:06:23.912Z,3.74
2017-12-27T05:07:24.419Z,3.76
2017-12-27T05:08:24.238Z,3.76
2017-12-27T05:09:24.364Z,3.78
2017-12-27T05:10:24.795Z,3.79
2017-12-27T05:11:24.475Z,3.79
2017-12-27T05:12:24.598Z,3.79
2017-12-27T05:13:24.441Z,3.83
2017-12-27T05:14:24.403Z,3.83
2017-12-27T05:15:24.372Z,3.83
2017-12-27T05:16:24.288Z,3.85
2017-12-27T05:17:24.454Z,3.85
2017-12-27T05:18:24.363Z,3.88
2017-12-27T05:19:24.309Z,3.86
2017-12-27T05:20:24.122Z,3.89
2017-12-27T05:21:24.655Z,3.9
2017-12-27T05:22:24.322Z,3.9
2017-12-27T05:23:24.096Z,3.9
2017-12-27T05:24:24.207Z,3.91
2017-12-27T05:25:24.498Z,3.94
2017-12-27T05:26:24.459Z,3.95
2017-12-27T05:27:24.194Z,3.97
2017-12-27T05:28:24.328Z,3.98
2017-12-27T05:29:23.938Z,3.98
2017-12-27T05:30:24.542Z,3.97
2017-12-27T05:31:24.051Z,4
2017-12-27T05:32:24.351Z,4.02
2017-12-27T05:33:24.297Z,4.03
2017-12-27T05:34:24.399Z,4.04
2017-12-27T05:35:24.390Z,4.04
2017-12-27T05:36:24.498Z,4.07
2017-12-27T05:37:24.535Z,4.08
2017-12-27T05:38:24.414Z,4.1
2017-12-27T05:39:24.385Z,4.1
2017-12-27T05:40:24.438Z,4.09
2017-12-27T05:41:24.300Z,4.11
2017-12-27T05:42:24.323Z,4.14
2017-12-27T05:43:24.431Z,4.11
2017-12-27T05:44:24.557Z,4.15
2017-12-27T05:45:24.376Z,4.15
2017-12-27T05:46:24.288Z,4.14
2017-12-27T05:47:24.444Z,4.16
2017-12-27T05:48:24.498Z,4.2
2017-12-27T05:49:24.357Z,4.2
2017-12-27T05:50:24.387Z,4.25
2017-12-27T05:51:24.292Z,4.24
2017-12-27T05:52:24.776Z,4.23
2017-12-27T05:53:24.347Z,4.27
2017-12-27T05:54:24.740Z,4.29
2017-12-27T05:55:24.217Z,4.28
2017-12-27T05:56:23.888Z,4.29
2017-12-27T05:57:24.327Z,4.31
2017-12-27T05:58:24.224Z,4.29
2017-12-27T05:59:24.130Z,4.29
2017-12-27T06:00:24.529Z,4.33
2017-12-27T06:01:24.504Z,4.33
2017-12-27T06:02:24.287Z,4.34
2017-12-27T06:03:24.600Z,4.35
2017-12-27T06:04:24.693Z,4.37
2017-12-27T06:05:24.346Z,4.39
2017-12-27T06:06:25.230Z,4.37
2017-12-27T06:07:24.349Z,4.42
2017-12-27T06:08:24.130Z,4.41
2017-12-27T06:09:24.511Z,4.42
2017-12-27T06:10:24.467Z,4.41
2017-12-27T06:11:25.268Z,4.44
2017-12-27T06:12:24.804Z,4.42
2017-12-27T06:13:24.478Z,4.43
2017-12-27T06:14:24.355Z,4.46
2017-12-27T06:15:24.929Z,4.46
2017-12-27T06:16:24.179Z,4.46
2017-12-27T06:17:24.278Z,4.43
2017-12-27T06:18:24.549Z,4.46
2017-12-27T06:19:24.315Z,4.46
2017-12-27T06:20:24.749Z,4.46
2017-12-27T06:21:24.463Z,4.46
2017-12-27T06:22:24.938Z,4.47
2017-12-27T06:23:24.444Z,4.46
2017-12-27T06:24:24.871Z,4.49
2017-12-27T06:25:24.682Z,4.48
2017-12-27T06:26:24.372Z,4.47
2017-12-27T06:27:24.585Z,4.49
2017-12-27T06:28:24.456Z,4.5
2017-12-27T06:29:24.409Z,4.47
2017-12-27T06:30:24.634Z,4.47
2017-12-27T06:31:24.499Z,4.46
2017-12-27T06:32:24.390Z,4.46
2017-12-27T06:33:24.712Z,4.44
2017-12-27T06:34:24.578Z,4.44
2017-12-27T06:35:23.899Z,4.42
2017-12-27T06:36:24.648Z,4.41
2017-12-27T06:37:24.328Z,4.4
2017-12-27T06:38:24.500Z,4.39
2017-12-27T06:39:24.345Z,4.38
2017-12-27T06:40:24.823Z,4.35
2017-12-27T06:41:24.498Z,4.34
2017-12-27T06:42:24.313Z,4.34
2017-12-27T06:43:24.875Z,4.36
2017-12-27T06:44:24.722Z,4.33
2017-12-27T06:45:24.870Z,4.32
2017-12-27T06:46:24.708Z,4.32
2017-12-27T06:47:24.639Z,4.31
2017-12-27T06:48:24.750Z,4.29
2017-12-27T06:49:24.289Z,4.31
2017-12-27T06:50:24.637Z,4.3
2017-12-27T06:51:25.168Z,4.31
2017-12-27T06:52:24.672Z,4.28
2017-12-27T06:53:24.895Z,4.29
2017-12-27T06:54:24.870Z,4.28
2017-12-27T06:55:24.240Z,4.27
2017-12-27T06:56:24.805Z,4.28
2017-12-27T06:57:24.988Z,4.26
2017-12-27T06:58:25.169Z,4.25
2017-12-27T06:59:24.827Z,4.24
2017-12-27T07:00:24.389Z,4.21
2017-12-27T07:01:24.593Z,4.2
2017-12-27T07:02:24.701Z,4.17
2017-12-27T07:03:25.083Z,4.17
2017-12-27T07:04:24.548Z,4.16
2017-12-27T07:05:24.846Z,4.14
2017-12-27T07:06:25.018Z,4.17
2017-12-27T07:07:24.806Z,4.14
2017-12-27T07:08:24.561Z,4.15
2017-12-27T07:09:24.896Z,4.15
2017-12-27T07:10:24.794Z,4.17
2017-12-27T07:11:24.748Z,4.15
2017-12-27T07:12:24.901Z,4.17
2017-12-27T07:13:24.931Z,4.14
2017-12-27T07:14:24.930Z,4.16
2017-12-27T07:15:24.730Z,4.12
2017-12-27T07:16:24.903Z,4.14
2017-12-27T07:17:24.748Z,4.11
2017-12-27T07:18:24.738Z,4.12
2017-12-27T07:19:24.521Z,4.11
2017-12-27T07:20:24.335Z,4.1
2017-12-27T07:21:24.157Z,4.09
2017-12-27T07:22:24.676Z,4.11
2017-12-27T07:23:24.363Z,4.09
2017-12-27T07:24:24.456Z,4.1
2017-12-27T07:25:24.349Z,4.07
2017-12-27T07:26:24.575Z,4.07
2017-12-27T07:27:24.488Z,4.07
2017-12-27T07:28:24.248Z,4.06
2017-12-27T07:29:25.513Z,4.06
2017-12-27T07:30:24.350Z,4.06
2017-12-27T07:31:24.648Z,4.05
2017-12-27T07:32:24.348Z,4.06
2017-12-27T07:33:24.596Z,4.05
2017-12-27T07:34:24.718Z,4.03
2017-12-27T07:35:24.956Z,4.04
2017-12-27T07:36:24.823Z,4
2017-12-27T07:37:24.741Z,4.03
2017-12-27T07:38:24.759Z,4.01
2017-12-27T07:39:24.361Z,4
2017-12-27T07:40:24.610Z,3.99
2017-12-27T07:41:24.683Z,4.01
2017-12-27T07:42:24.554Z,4.01
2017-12-27T07:43:24.704Z,4
2017-12-27T07:44:24.634Z,4.01
2017-12-27T07:45:24.551Z,3.99
2017-12-27T07:46:24.826Z,3.99
2017-12-27T07:47:24.626Z,3.99
2017-12-27T07:48:24.558Z,3.99
2017-12-27T07:49:24.437Z,3.99
2017-12-27T07:50:24.942Z,3.97
2017-12-27T07:51:24.592Z,4.02
2017-12-27T07:52:24.922Z,4.01
2017-12-27T07:53:24.625Z,4.02
2017-12-27T07:54:24.384Z,4.01
2017-12-27T07:55:24.572Z,4.01
2017-12-27T07:56:24.522Z,4.01
2017-12-27T07:57:24.568Z,4.02
2017-12-27T07:58:24.557Z,4.02
2017-12-27T07:59:24.560Z,4.05
2017-12-27T08:00:24.802Z,4.05
2017-12-27T08:01:24.364Z,4.03
2017-12-27T08:02:24.946Z,4.04
2017-12-27T08:03:24.411Z,4.01
2017-12-27T08:04:24.550Z,4.01
2017-12-27T08:05:24.564Z,4.02
2017-12-27T08:06:24.890Z,4.02
2017-12-27T08:07:25.061Z,4.03
2017-12-27T08:08:25.223Z,4.04
2017-12-27T08:09:24.769Z,4.05
2017-12-27T08:10:24.747Z,4.03
2017-12-27T08:11:25.100Z,4.03
2017-12-27T08:12:24.456Z,4.04
2017-12-27T08:13:25.179Z,4.04
2017-12-27T08:14:24.396Z,4.04
2017-12-27T08:15:24.706Z,4.02
2017-12-27T08:16:24.628Z,4.04
2017-12-27T08:17:24.534Z,4.01
2017-12-27T08:18:24.668Z,4.01
2017-12-27T08:19:24.627Z,4
2017-12-27T08:20:24.792Z,4
2017-12-27T08:21:24.568Z,3.97
2017-12-27T08:22:24.159Z,3.99
2017-12-27T08:23:24.674Z,3.96
2017-12-27T08:24:24.460Z,3.97
2017-12-27T08:25:25.045Z,3.95
2017-12-27T08:26:25.162Z,3.95
2017-12-27T08:27:24.472Z,3.94
2017-12-27T08:28:24.696Z,3.93
2017-12-27T08:29:24.723Z,3.93
2017-12-27T08:32:38.963Z,3.93
2017-12-27T08:33:24.829Z,3.92
2017-12-27T08:34:24.967Z,3.92
2017-12-27T08:35:24.772Z,3.9
2017-12-27T08:36:23.742Z,3.9
2017-12-27T08:37:24.007Z,3.9
2017-12-27T08:38:24.092Z,3.9
2017-12-27T08:39:23.805Z,3.9
2017-12-27T08:40:23.549Z,3.9
2017-12-27T08:41:23.892Z,3.9
2017-12-27T08:42:23.912Z,3.9
2017-12-27T08:43:24.544Z,3.9
2017-12-27T08:44:23.756Z,3.9
2017-12-27T08:45:24.353Z,3.92
2017-12-27T08:46:23.837Z,3.9
2017-12-27T08:47:23.830Z,3.9
2017-12-27T08:48:23.802Z,3.89
2017-12-27T08:49:23.586Z,3.9
2017-12-27T08:50:23.889Z,3.89
2017-12-27T08:51:23.803Z,3.88
2017-12-27T08:52:24.517Z,3.87
2017-12-27T08:53:23.522Z,3.87
2017-12-27T08:54:23.440Z,3.85
2017-12-27T08:55:23.859Z,3.83
2017-12-27T08:56:23.595Z,3.84
2017-12-27T08:57:23.466Z,3.82
2017-12-27T08:58:23.949Z,3.82
2017-12-27T08:59:23.598Z,3.82
2017-12-27T09:00:23.664Z,3.79
2017-12-27T09:01:23.532Z,3.81
2017-12-27T09:02:23.653Z,3.82
2017-12-27T09:03:24.016Z,3.82
2017-12-27T09:04:23.784Z,3.82
2017-12-27T09:05:23.880Z,3.81
2017-12-27T09:06:23.731Z,3.82
2017-12-27T09:07:23.876Z,3.81
2017-12-27T09:08:23.940Z,3.81
2017-12-27T09:09:24.007Z,3.84
2017-12-27T09:10:23.659Z,3.85
2017-12-27T09:11:24.620Z,3.84
2017-12-27T09:12:23.870Z,3.86
2017-12-27T09:13:23.788Z,3.85
2017-12-27T09:14:23.468Z,3.89
2017-12-27T09:15:23.883Z,3.91
2017-12-27T09:16:23.878Z,3.94
2017-12-27T09:17:23.668Z,3.94
2017-12-27T09:18:23.573Z,3.95
2017-12-27T09:19:24.086Z,3.95
2017-12-27T09:20:25.009Z,3.99
2017-12-27T09:21:23.810Z,3.97
2017-12-27T09:22:23.533Z,3.99
2017-12-27T09:23:23.650Z,3.99
2017-12-27T09:24:23.713Z,4.04
2017-12-27T09:25:23.589Z,4.01
2017-12-27T09:26:23.969Z,4.04
2017-12-27T09:27:23.487Z,4.03
2017-12-27T09:28:23.599Z,4.06
2017-12-27T09:29:23.735Z,4.07
2017-12-27T09:30:23.908Z,4.07
2017-12-27T09:31:23.647Z,4.08
2017-12-27T09:32:23.727Z,4.13
2017-12-27T09:33:23.664Z,4.15
2017-12-27T09:34:23.528Z,4.17
2017-12-27T09:35:23.609Z,4.2
2017-12-27T09:36:23.809Z,4.22
2017-12-27T09:37:23.568Z,4.26
2017-12-27T09:38:23.646Z,4.29
2017-12-27T09:39:23.787Z,4.29
2017-12-27T09:40:23.608Z,4.31
2017-12-27T09:41:23.771Z,4.32
2017-12-27T09:42:23.751Z,4.31
2017-12-27T09:43:23.659Z,4.31
2017-12-27T09:44:23.805Z,4.31
2017-12-27T09:45:23.590Z,4.31
2017-12-27T09:46:23.625Z,4.32
2017-12-27T09:47:23.767Z,4.32
2017-12-27T09:48:23.757Z,4.32
2017-12-27T09:49:23.338Z,4.32
2017-12-27T09:50:23.613Z,4.33
2017-12-27T09:51:23.811Z,4.33
2017-12-27T09:52:23.785Z,4.34
2017-12-27T09:53:23.861Z,4.33
2017-12-27T09:54:23.624Z,4.35
2017-12-27T09:55:24.003Z,4.37
2017-12-27T09:56:23.522Z,4.35
2017-12-27T09:57:23.559Z,4.39
2017-12-27T09:58:23.634Z,4.39
2017-12-27T09:59:23.479Z,4.39
2017-12-27T10:00:23.683Z,4.39
2017-12-27T10:01:23.483Z,4.39
2017-12-27T10:02:23.711Z,4.4
2017-12-27T10:03:23.589Z,4.4
2017-12-27T10:04:23.364Z,4.41
2017-12-27T10:05:23.375Z,4.43
2017-12-27T10:06:23.720Z,4.44
2017-12-27T10:07:23.342Z,4.45
2017-12-27T10:08:23.591Z,4.47
2017-12-27T10:09:24.317Z,4.47
2017-12-27T10:10:23.562Z,4.51
2017-12-27T10:11:23.536Z,4.52
2017-12-27T10:12:23.598Z,4.53
2017-12-27T10:13:23.786Z,4.59
2017-12-27T10:14:23.665Z,4.61
2017-12-27T10:15:23.581Z,4.61
2017-12-27T10:16:23.566Z,4.63
2017-12-27T10:17:23.552Z,4.64
2017-12-27T10:18:23.681Z,4.65
2017-12-27T10:19:23.753Z,4.69
2017-12-27T10:20:23.626Z,4.7
2017-12-27T10:21:23.492Z,4.7
2017-12-27T10:22:23.702Z,4.7
2017-12-27T10:23:23.740Z,4.72
2017-12-27T10:24:23.565Z,4.75
2017-12-27T10:25:23.713Z,4.76
2017-12-27T10:26:23.537Z,4.77
2017-12-27T10:27:23.623Z,4.77
2017-12-27T10:28:23.537Z,4.76
2017-12-27T10:29:23.719Z,4.8
2017-12-27T10:30:23.796Z,4.81
2017-12-27T10:31:23.533Z,4.86
2017-12-27T10:32:23.434Z,4.86
2017-12-27T10:33:23.707Z,4.89
2017-12-27T10:34:23.701Z,4.91
2017-12-27T10:35:23.486Z,4.94
2017-12-27T10:36:23.551Z,4.96
2017-12-27T10:37:23.616Z,5.03
2017-12-27T10:38:24.008Z,5.03
2017-12-27T10:39:23.503Z,5.07
2017-12-27T10:40:23.739Z,5.08
2017-12-27T10:41:23.622Z,5.14
2017-12-27T10:42:23.546Z,5.15
2017-12-27T10:43:23.656Z,5.17
2017-12-27T10:44:23.541Z,5.19
2017-12-27T10:45:23.762Z,5.19
2017-12-27T10:46:23.663Z,5.25
2017-12-27T10:47:23.689Z,5.25
2017-12-27T10:48:23.624Z,5.26
2017-12-27T10:49:23.675Z,5.28
2017-12-27T10:50:23.509Z,5.32
2017-12-27T10:51:23.738Z,5.31
2017-12-27T10:52:23.643Z,5.32
2017-12-27T10:53:23.713Z,5.35
2017-12-27T10:54:23.696Z,5.36
2017-12-27T10:55:23.831Z,5.36
2017-12-27T10:56:23.673Z,5.37
2017-12-27T10:57:23.768Z,5.38
2017-12-27T10:58:23.790Z,5.39
2017-12-27T10:59:23.756Z,5.39
2017-12-27T11:00:23.631Z,5.42
2017-12-27T11:01:23.787Z,5.41
2017-12-27T11:02:23.747Z,5.39
2017-12-27T11:03:23.669Z,5.43
2017-12-27T11:04:23.609Z,5.45
2017-12-27T11:05:23.671Z,5.47
2017-12-27T11:06:23.935Z,5.48
2017-12-27T11:07:23.813Z,5.48
2017-12-27T11:08:23.676Z,5.5
2017-12-27T11:09:23.792Z,5.54
2017-12-27T11:10:23.558Z,5.52
2017-12-27T11:11:23.649Z,5.56
2017-12-27T11:12:23.668Z,5.57
2017-12-27T11:13:23.671Z,5.58
2017-12-27T11:14:23.773Z,5.58
2017-12-27T11:15:23.684Z,5.59
2017-12-27T11:16:23.688Z,5.6
2017-12-27T11:17:23.703Z,5.63
2017-12-27T11:18:23.696Z,5.63
2017-12-27T11:19:23.583Z,5.67
2017-12-27T11:20:23.652Z,5.65
2017-12-27T11:21:23.892Z,5.69
2017-12-27T11:22:23.555Z,5.69
2017-12-27T11:23:23.627Z,5.71
2017-12-27T11:24:23.758Z,5.71
2017-12-27T11:25:23.552Z,5.76
2017-12-27T11:26:23.862Z,5.77
2017-12-27T11:27:23.665Z,5.8
2017-12-27T11:28:23.518Z,5.82
2017-12-27T11:29:23.672Z,5.82
2017-12-27T11:30:23.991Z,5.86
2017-12-27T11:31:23.719Z,5.86
2017-12-27T11:32:23.687Z,5.86
2017-12-27T11:33:23.818Z,5.84
2017-12-27T11:34:23.862Z,5.87
2017-12-27T11:35:23.948Z,5.85
2017-12-27T11:36:23.745Z,5.86
2017-12-27T11:37:23.807Z,5.84
2017-12-27T11:38:23.634Z,5.84
2017-12-27T11:39:23.585Z,5.84
2017-12-27T11:40:23.759Z,5.86
2017-12-27T11:41:23.777Z,5.84
2017-12-27T11:42:23.765Z,5.83
2017-12-27T11:43:23.852Z,5.83
2017-12-27T11:44:23.708Z,5.84
2017-12-27T12:39:24.130Z,5.81
2017-12-27T12:40:24.119Z,5.79
2017-12-27T12:41:23.915Z,5.79
2017-12-27T12:42:24.073Z,5.77
2017-12-27T12:43:24.271Z,5.78
2017-12-27T12:44:26.428Z,5.78
2017-12-27T12:45:24.027Z,5.78
2017-12-27T12:46:23.965Z,5.78
2017-12-27T12:47:23.953Z,5.78
2017-12-27T12:48:24.163Z,5.77
2017-12-27T12:49:23.719Z,5.77
2017-12-27T12:50:23.906Z,5.77
2017-12-27T12:51:23.990Z,5.78
2017-12-27T12:52:24.051Z,5.78
2017-12-27T12:53:23.921Z,5.8
2017-12-27T12:54:24.133Z,5.8
2017-12-27T12:55:23.841Z,5.82
2017-12-27T12:56:24.085Z,5.81
2017-12-27T12:57:23.995Z,5.84
2017-12-27T12:58:23.996Z,5.84
2017-12-27T12:59:23.945Z,5.85
2017-12-27T13:00:24.498Z,5.88
2017-12-27T13:01:24.110Z,5.89
2017-12-27T13:02:23.978Z,5.9
2017-12-27T13:03:25.085Z,5.9
2017-12-27T13:04:24.069Z,5.91
2017-12-27T13:05:24.149Z,5.91
2017-12-27T13:06:24.042Z,5.91
2017-12-27T13:07:25.098Z,5.92
2017-12-27T13:08:24.008Z,5.93
2017-12-27T13:09:24.094Z,5.93
2017-12-27T13:10:23.791Z,5.96
2017-12-27T13:11:24.172Z,5.96
2017-12-27T13:12:24.056Z,5.97
2017-12-27T13:13:24.758Z,5.98
2017-12-27T13:14:24.965Z,5.98
2017-12-27T13:15:24.835Z,6
2017-12-27T13:16:24.006Z,6.02
2017-12-27T13:17:23.926Z,6.03
2017-12-27T13:18:24.130Z,6.05
2017-12-27T13:19:23.847Z,6.05
2017-12-27T13:20:24.016Z,6.08
2017-12-27T13:21:24.265Z,6.09
2017-12-27T13:22:24.024Z,6.1
2017-12-27T13:23:23.934Z,6.1
2017-12-27T13:24:23.963Z,6.11
2017-12-27T13:25:24.363Z,6.13
2017-12-27T13:26:24.333Z,6.12
2017-12-27T13:27:24.188Z,6.15
2017-12-27T13:28:24.482Z,6.14
2017-12-27T13:29:24.193Z,6.16
2017-12-27T13:30:23.999Z,6.16
2017-12-27T13:31:24.086Z,6.16
2017-12-27T13:32:24.043Z,6.16
2017-12-27T13:33:24.549Z,6.16
2017-12-27T13:34:24.612Z,6.16
2017-12-27T13:35:24.095Z,6.15
2017-12-27T13:36:25.759Z,6.17
2017-12-27T13:37:24.151Z,6.19
2017-12-27T13:38:23.974Z,6.2
2017-12-27T13:39:23.945Z,6.2
2017-12-27T13:40:24.155Z,6.18
2017-12-27T13:41:24.130Z,6.19
2017-12-27T13:42:24.290Z,6.2
2017-12-27T13:43:24.055Z,6.21
2017-12-27T13:44:23.934Z,6.21
2017-12-27T13:45:24.172Z,6.2
2017-12-27T13:46:24.088Z,6.21
2017-12-27T13:47:24.274Z,6.21
2017-12-27T13:48:24.307Z,6.21
2017-12-27T13:49:24.176Z,6.21
2017-12-27T13:50:24.234Z,6.21
2017-12-27T13:51:27.846Z,6.18
2017-12-27T13:52:24.195Z,6.16
2017-12-27T13:53:24.051Z,6.16
2017-12-27T13:54:24.350Z,6.15
2017-12-27T13:55:24.087Z,6.12
2017-12-27T13:56:24.067Z,6.14
2017-12-27T13:57:24.144Z,6.1
2017-12-27T13:58:24.318Z,6.08
2017-12-27T13:59:24.370Z,6.07
2017-12-27T14:00:24.378Z,6.04
2017-12-27T14:01:24.215Z,6.05
2017-12-27T14:02:24.187Z,6.03
2017-12-27T14:03:24.321Z,6.02
2017-12-27T14:04:24.953Z,6.01
2017-12-27T14:05:25.334Z,6
2017-12-27T14:06:24.373Z,5.97
2017-12-27T14:07:25.391Z,5.96
2017-12-27T14:08:24.433Z,5.93
2017-12-27T14:09:24.339Z,5.93
2017-12-27T14:10:24.472Z,5.9
2017-12-27T14:11:25.477Z,5.88
2017-12-27T14:12:24.397Z,5.84
2017-12-27T14:13:24.224Z,5.82
2017-12-27T14:14:24.394Z,5.8
2017-12-27T14:15:24.392Z,5.78
2017-12-27T14:16:25.153Z,5.78
2017-12-27T14:17:24.222Z,5.77
2017-12-27T14:18:24.481Z,5.71
2017-12-27T14:19:24.996Z,5.7
2017-12-27T14:20:24.454Z,5.66
2017-12-27T14:21:24.327Z,5.66
2017-12-27T14:22:24.371Z,5.63
2017-12-27T14:23:25.846Z,5.58
2017-12-27T14:24:24.419Z,5.54
2017-12-27T14:25:24.356Z,5.53
2017-12-27T14:26:24.182Z,5.51
2017-12-27T14:27:24.388Z,5.47
2017-12-27T14:28:24.098Z,5.46
2017-12-27T14:29:25.013Z,5.43
2017-12-27T14:30:25.451Z,5.42
2017-12-27T14:31:25.012Z,5.41
2017-12-27T14:32:24.611Z,5.42
2017-12-27T14:35:24.258Z,5.37
2017-12-27T14:36:26.846Z,5.38
2017-12-27T14:37:24.680Z,5.38
2017-12-27T14:38:24.580Z,5.36
2017-12-27T14:39:24.632Z,5.37
2017-12-27T14:40:24.826Z,5.37
2017-12-27T14:41:26.141Z,5.37
2017-12-27T14:42:26.057Z,5.38